Time;durP1;ratioP1;P1;durP2;ratioP2;P2;SDS_P1;SDS_P2;PMS_P1;PMS_P2;Temp;Humidity;BMP_temperature;BMP_pressure;BME280_temperature;BME280_humidity;BME280_pressure;Samples;Min_cycle;Max_cycle;Signal;HPM_P1;HPM_P2
2021/06/23 00:02:03;;;;;;;19.02;13.55;;;;;;;25.58;68.50;99585.44;5122938;28;20044;-66
2021/06/23 00:04:28;;;;;;;21.98;13.45;;;;;;;25.59;68.84;99583.56;5123188;28;20078;-66
2021/06/23 00:06:54;;;;;;;19.15;12.55;;;;;;;25.65;68.58;99569.78;5123190;28;20304;-66
2021/06/23 00:09:19;;;;;;;19.95;13.15;;;;;;;25.77;68.26;99575.78;5123040;28;20023;-66
2021/06/23 00:11:49;;;;;;;16.40;12.75;;;;;;;25.78;68.04;99576.59;5112120;28;20051;-66
2021/06/23 00:14:15;;;;;;;15.23;12.30;;;;;;;25.85;67.04;99562.81;5105802;28;20226;-66
2021/06/23 00:16:41;;;;;;;17.92;12.52;;;;;;;25.85;67.34;99574.47;5104626;28;20024;-67
2021/06/23 00:19:07;;;;;;;20.65;13.30;;;;;;;25.91;66.97;99573.41;5102771;28;20092;-68
2021/06/23 00:21:33;;;;;;;17.23;12.82;;;;;;;25.76;67.80;99565.22;5101639;28;20056;-66
2021/06/23 00:23:58;;;;;;;17.48;13.30;;;;;;;25.57;68.21;99569.44;5101275;28;20028;-68
2021/06/23 00:26:24;;;;;;;21.58;13.93;;;;;;;25.49;68.79;99569.94;5107528;28;20043;-66
2021/06/23 00:28:49;;;;;;;18.08;13.30;;;;;;;25.33;69.27;99569.88;5094366;28;20036;-67
2021/06/23 00:31:16;;;;;;;20.80;13.68;;;;;;;25.32;69.51;99581.78;5115204;28;20036;-67
2021/06/23 00:33:42;;;;;;;21.77;15.02;;;;;;;25.34;69.70;99578.81;5120456;28;20035;-66
2021/06/23 00:36:08;;;;;;;23.20;15.15;;;;;;;25.25;70.02;99572.25;5109558;28;20039;-68
2021/06/23 00:38:33;;;;;;;22.80;15.18;;;;;;;25.43;69.67;99569.09;5121741;28;20042;-67
2021/06/23 00:40:59;;;;;;;27.50;16.95;;;;;;;25.35;69.97;99565.00;5115456;28;20035;-68
2021/06/23 00:43:25;;;;;;;27.63;17.13;;;;;;;25.59;69.35;99567.28;5110961;28;20035;-66
2021/06/23 00:45:51;;;;;;;23.98;16.77;;;;;;;25.20;71.00;99574.94;5121397;28;20103;-66
2021/06/23 00:48:28;;;;;;;22.08;14.90;;;;;;;25.22;71.00;99578.19;5113480;28;20031;-68
2021/06/23 00:50:55;;;;;;;21.52;14.30;;;;;;;25.28;70.13;99571.72;5108980;28;20028;-67
2021/06/23 00:53:21;;;;;;;21.05;13.63;;;;;;;25.36;69.96;99565.81;5117179;28;20093;-68
2021/06/23 00:55:50;;;;;;;21.42;12.90;;;;;;;25.23;70.27;99569.00;5105807;28;20035;-66
2021/06/23 00:58:16;;;;;;;19.83;12.55;;;;;;;25.44;69.38;99576.16;5084361;28;20036;-68
2021/06/23 01:00:41;;;;;;;19.73;12.85;;;;;;;25.54;68.74;99569.97;5121221;28;20056;-66
2021/06/23 01:03:10;;;;;;;26.20;12.00;;;;;;;25.60;68.43;99558.88;5116984;28;20035;-68
2021/06/23 01:05:36;;;;;;;23.58;11.38;;;;;;;25.53;67.92;99560.19;5109467;28;20054;-68
2021/06/23 01:08:03;;;;;;;20.17;11.60;;;;;;;25.50;68.07;99561.56;5109417;28;20047;-66
2021/06/23 01:10:31;;;;;;;20.27;11.55;;;;;;;25.60;67.52;99560.78;5108777;28;20078;-68
2021/06/23 01:13:27;;;;;;;18.92;11.18;;;;;;;25.56;67.85;99559.69;5109237;28;20033;-68
2021/06/23 01:15:55;;;;;;;38.13;18.13;;;;;;;25.54;67.91;99559.13;5113103;28;20329;-68
2021/06/23 01:18:22;;;;;;;43.05;21.00;;;;;;;25.48;68.21;99555.56;5113457;28;20325;-67
2021/06/23 01:20:49;;;;;;;32.30;16.40;;;;;;;25.66;67.10;99554.31;5113231;28;20060;-67
2021/06/23 01:23:15;;;;;;;26.52;14.52;;;;;;;25.51;67.57;99540.69;5108671;28;20020;-66
2021/06/23 01:25:42;;;;;;;21.42;13.27;;;;;;;25.65;67.04;99547.25;5112077;28;20038;-68
2021/06/23 01:28:07;;;;;;;25.05;13.02;;;;;;;25.58;67.27;99547.50;5114200;28;20080;-66
2021/06/23 01:30:33;;;;;;;21.30;12.15;;;;;;;25.43;67.80;99550.13;5107871;28;20317;-67
2021/06/23 01:33:00;;;;;;;21.38;13.27;;;;;;;25.42;67.47;99560.16;5113209;28;20077;-66
2021/06/23 01:35:27;;;;;;;25.35;12.93;;;;;;;25.45;67.29;99545.25;5104139;28;20031;-67
2021/06/23 01:37:53;;;;;;;23.98;12.75;;;;;;;25.39;67.83;99560.69;5107619;28;20211;-67
2021/06/23 01:40:19;;;;;;;20.15;12.40;;;;;;;25.43;67.49;99563.69;5108531;28;20035;-66
2021/06/23 01:42:45;;;;;;;24.35;13.93;;;;;;;25.40;67.15;99569.63;5118415;28;20334;-66
2021/06/23 01:45:11;;;;;;;37.03;17.48;;;;;;;25.36;67.19;99582.91;5124623;28;20336;-66
2021/06/23 01:47:36;;;;;;;37.53;16.20;;;;;;;25.06;67.96;99578.09;5116644;28;20027;-68
2021/06/23 01:50:04;;;;;;;21.80;12.80;;;;;;;24.51;69.95;99579.25;5112781;28;20062;-67
2021/06/23 01:52:29;;;;;;;26.23;12.32;;;;;;;24.33;70.92;99581.50;5109889;28;20035;-66
2021/06/23 01:54:55;;;;;;;28.38;12.27;;;;;;;24.32;71.50;99580.69;5118803;28;20030;-66
2021/06/23 01:57:20;;;;;;;19.50;11.07;;;;;;;24.27;71.90;99590.66;5109236;28;20077;-68
2021/06/23 01:59:47;;;;;;;22.95;11.88;;;;;;;24.38;70.98;99590.50;5107924;28;20104;-68
2021/06/23 02:02:28;;;;;;;20.60;12.10;;;;;;;23.67;73.38;99586.94;5104861;28;20024;-66
2021/06/23 02:05:14;;;;;;;27.17;12.70;;;;;;;23.32;74.17;99551.31;5116046;28;20024;-67
2021/06/23 02:08:01;;;;;;;24.48;11.95;;;;;;;23.70;73.80;99591.84;5104710;28;20035;-66
2021/06/23 02:10:52;;;;;;;22.75;11.88;;;;;;;23.83;73.66;99582.53;5103440;28;20032;-66
2021/06/23 02:13:23;;;;;;;21.70;11.23;;;;;;;24.09;72.79;99586.38;5107638;28;20044;-66
2021/06/23 02:15:53;;;;;;;19.73;11.75;;;;;;;24.22;71.94;99580.56;5107514;28;20210;-66
2021/06/23 02:18:20;;;;;;;25.10;12.43;;;;;;;24.16;72.39;99582.38;5112069;28;20104;-66
2021/06/23 02:20:51;;;;;;;28.92;12.63;;;;;;;24.40;71.51;99590.22;5111813;28;20042;-67
2021/06/23 02:23:17;;;;;;;20.98;12.30;;;;;;;24.50;70.95;99582.22;5108503;28;20273;-66
2021/06/23 02:25:43;;;;;;;21.83;11.38;;;;;;;24.60;70.51;99584.19;5107649;28;20088;-66
2021/06/23 02:28:10;;;;;;;18.67;11.27;;;;;;;24.65;70.42;99587.75;5116048;28;20015;-66
2021/06/23 02:30:37;;;;;;;26.73;12.20;;;;;;;24.64;70.36;99579.88;5117401;28;20020;-66
2021/06/23 02:33:07;;;;;;;25.33;11.95;;;;;;;24.72;70.00;99582.13;5109418;28;20035;-66
2021/06/23 02:35:34;;;;;;;28.20;12.18;;;;;;;24.59;70.56;99577.97;5119064;28;20090;-66
2021/06/23 02:38:00;;;;;;;32.70;12.73;;;;;;;24.42;71.01;99579.97;5113910;28;20043;-67
2021/06/23 02:40:26;;;;;;;41.17;17.05;;;;;;;24.51;70.65;99579.25;5106197;28;20034;-66
2021/06/23 02:42:53;;;;;;;41.17;18.08;;;;;;;24.64;70.00;99585.31;5103309;28;20044;-66
2021/06/23 02:45:21;;;;;;;39.47;15.93;;;;;;;24.65;69.72;99574.22;5087907;28;20360;-66
2021/06/23 02:47:46;;;;;;;32.55;13.63;;;;;;;24.72;69.23;99579.41;5108309;28;20085;-66
2021/06/23 02:50:12;;;;;;;31.42;14.15;;;;;;;24.65;69.52;99595.06;5110969;28;20027;-66
2021/06/23 02:52:38;;;;;;;34.85;12.50;;;;;;;24.61;69.81;99596.66;5111032;28;20032;-67
2021/06/23 02:55:05;;;;;;;24.70;11.63;;;;;;;24.76;68.90;99592.19;5109026;28;20215;-67
2021/06/23 02:57:32;;;;;;;26.38;10.80;;;;;;;24.68;68.88;99594.53;5111050;28;20058;-67
2021/06/23 02:59:59;;;;;;;22.33;10.18;;;;;;;24.71;68.61;99589.44;5106754;28;20032;-66
2021/06/23 03:02:25;;;;;;;17.30;9.77;;;;;;;24.68;68.32;99589.94;5113155;28;20097;-66
2021/06/23 03:04:50;;;;;;;27.00;11.00;;;;;;;24.63;68.50;99594.50;5110669;28;20102;-67
2021/06/23 03:07:17;;;;;;;29.77;10.40;;;;;;;24.81;68.12;99608.47;5114044;28;20300;-67
2021/06/23 03:09:44;;;;;;;23.35;10.80;;;;;;;24.90;67.47;99611.50;5108974;28;20050;-66
2021/06/23 03:12:11;;;;;;;25.13;11.85;;;;;;;24.90;67.61;99621.53;5106788;28;20039;-67
2021/06/23 03:14:37;;;;;;;19.42;9.43;;;;;;;24.95;67.54;99624.28;5116524;28;20023;-68
2021/06/23 03:17:03;;;;;;;30.20;11.25;;;;;;;24.81;67.80;99630.13;5109146;28;20111;-66
2021/06/23 03:19:28;;;;;;;17.88;10.35;;;;;;;24.79;68.73;99618.75;5088215;28;20152;-66
2021/06/23 03:21:54;;;;;;;28.95;11.95;;;;;;;24.75;68.75;99606.78;5098043;28;20097;-67
2021/06/23 03:24:20;;;;;;;25.98;12.63;;;;;;;24.79;68.19;99607.09;5117205;27;20050;-68
2021/06/23 03:26:45;;;;;;;29.42;12.75;;;;;;;25.00;67.49;99611.66;5124066;28;20032;-67
2021/06/23 03:29:24;;;;;;;32.05;12.07;;;;;;;24.92;67.91;99609.38;5123707;28;20317;-67
2021/06/23 03:31:50;;;;;;;25.08;11.02;;;;;;;24.92;67.79;99611.25;5105515;28;20084;-66
2021/06/23 03:34:15;;;;;;;28.60;12.27;;;;;;;24.82;69.11;99612.81;5122762;28;20340;-66
2021/06/23 03:36:41;;;;;;;26.55;12.88;;;;;;;24.75;69.53;99611.38;5110735;28;20036;-68
2021/06/23 03:39:06;;;;;;;25.65;12.70;;;;;;;24.66;69.93;99602.91;5107077;28;20121;-68
2021/06/23 03:41:32;;;;;;;30.73;13.13;;;;;;;24.71;70.29;99618.41;5114538;28;20031;-66
2021/06/23 03:43:57;;;;;;;35.50;14.52;;;;;;;24.75;70.41;99617.63;5115048;28;20337;-68
2021/06/23 03:46:23;;;;;;;34.08;15.00;;;;;;;24.63;71.11;99616.16;5122440;28;20091;-67
2021/06/23 03:48:48;;;;;;;25.50;14.38;;;;;;;24.81;71.16;99626.59;5114109;28;20039;-68
2021/06/23 03:51:13;;;;;;;29.15;14.55;;;;;;;24.95;70.46;99624.28;5117543;28;20043;-66
2021/06/23 03:53:39;;;;;;;28.27;14.20;;;;;;;24.98;70.71;99624.63;5112216;28;20027;-66
2021/06/23 03:56:04;;;;;;;27.92;14.57;;;;;;;25.09;70.68;99630.94;5108679;28;20039;-67
2021/06/23 03:58:30;;;;;;;31.80;15.20;;;;;;;25.28;70.29;99639.47;5115283;28;20024;-67
2021/06/23 04:00:55;;;;;;;26.67;14.30;;;;;;;25.37;69.94;99633.31;5106134;28;20036;-66
2021/06/23 04:03:21;;;;;;;35.85;14.63;;;;;;;25.50;69.93;99628.50;5120056;28;20028;-66
2021/06/23 04:05:46;;;;;;;33.95;13.93;;;;;;;25.63;69.17;99609.88;5121599;28;20024;-68
2021/06/23 04:08:11;;;;;;;33.53;14.60;;;;;;;25.63;69.27;99614.47;5112971;28;20038;-68
2021/06/23 04:10:37;;;;;;;31.15;14.10;;;;;;;25.74;69.12;99619.72;5108963;28;20031;-66
2021/06/23 04:13:03;;;;;;;34.53;14.98;;;;;;;25.71;69.53;99614.00;5111474;28;20046;-68
2021/06/23 04:15:28;;;;;;;34.42;15.57;;;;;;;25.76;69.33;99620.28;5121759;28;20049;-67
2021/06/23 04:17:53;;;;;;;49.33;22.63;;;;;;;25.44;71.02;99631.19;5120799;28;20083;-68
2021/06/23 04:20:19;;;;;;;34.85;18.35;;;;;;;25.84;69.75;99643.34;5111020;28;20054;-67
2021/06/23 04:22:44;;;;;;;30.30;14.07;;;;;;;25.97;68.99;99633.91;5114111;28;20280;-67
2021/06/23 04:25:11;;;;;;;32.40;13.95;;;;;;;26.13;69.50;99651.91;5109438;28;20390;-66
2021/06/23 04:27:37;;;;;;;30.02;15.50;;;;;;;25.65;71.30;99643.00;5111977;28;20027;-66
2021/06/23 04:30:11;;;;;;;26.58;15.10;;;;;;;25.37;72.29;99649.56;5108205;28;20333;-67
2021/06/23 04:32:36;;;;;;;35.30;15.52;;;;;;;25.45;72.25;99649.09;5113556;28;20321;-66
2021/06/23 04:35:05;;;;;;;23.95;12.55;;;;;;;25.64;70.41;99654.88;5110358;28;20031;-68
2021/06/23 04:37:32;;;;;;;26.05;13.35;;;;;;;25.88;67.93;99652.59;5109640;28;20217;-66
2021/06/23 04:39:57;;;;;;;29.63;13.48;;;;;;;26.13;67.16;99654.63;5109565;28;20035;-68
2021/06/23 04:42:22;;;;;;;21.92;12.63;;;;;;;26.42;66.69;99652.28;5111711;28;20324;-68
2021/06/23 04:44:48;;;;;;;24.08;13.50;;;;;;;26.62;65.74;99655.03;5119865;28;20034;-66
2021/06/23 04:47:13;;;;;;;24.48;13.00;;;;;;;26.87;64.50;99651.53;5126207;28;20030;-68
2021/06/23 04:49:39;;;;;;;23.38;13.07;;;;;;;26.77;64.69;99654.25;5120527;28;20035;-66
2021/06/23 04:52:04;;;;;;;31.10;15.15;;;;;;;27.04;63.62;99656.72;5109992;28;20310;-68
2021/06/23 04:54:30;;;;;;;25.15;13.60;;;;;;;27.16;62.75;99656.50;5118477;28;20187;-66
2021/06/23 04:56:55;;;;;;;33.05;11.63;;;;;;;27.17;61.92;99653.50;5118599;28;20205;-68
2021/06/23 04:59:21;;;;;;;27.67;12.75;;;;;;;27.13;62.05;99646.16;5108473;28;20028;-68
2021/06/23 05:01:46;;;;;;;32.25;11.73;;;;;;;27.27;61.78;99655.38;5113907;28;20191;-68
2021/06/23 05:04:12;;;;;;;22.92;12.48;;;;;;;27.42;61.15;99654.56;5109590;28;20081;-68
2021/06/23 05:06:37;;;;;;;26.02;12.68;;;;;;;27.73;60.28;99645.25;5121045;28;20119;-66
2021/06/23 05:09:06;;;;;;;27.60;12.55;;;;;;;28.20;58.46;99658.41;5113621;28;20032;-68
2021/06/23 05:11:34;;;;;;;26.35;11.98;;;;;;;28.34;57.99;99634.16;5104884;28;20048;-66
2021/06/23 05:14:01;;;;;;;33.38;15.48;;;;;;;28.60;57.18;99657.41;5108972;28;20024;-68
2021/06/23 05:16:29;;;;;;;25.98;12.38;;;;;;;28.24;58.29;99655.97;5105292;28;20255;-68
2021/06/23 05:18:55;;;;;;;26.65;11.75;;;;;;;28.33;57.85;99657.03;5104411;28;20099;-68
2021/06/23 05:21:21;;;;;;;24.45;12.50;;;;;;;28.49;58.05;99658.56;5105630;28;20032;-66
2021/06/23 05:23:47;;;;;;;28.33;11.77;;;;;;;28.72;57.54;99667.94;5104121;28;20266;-68
2021/06/23 05:26:12;;;;;;;32.25;11.88;;;;;;;29.03;56.58;99662.28;5109214;28;20103;-68
2021/06/23 05:28:38;;;;;;;26.17;10.80;;;;;;;29.04;54.92;99661.19;5108825;28;20024;-67
2021/06/23 05:31:03;;;;;;;26.50;11.25;;;;;;;29.00;55.00;99662.84;5116682;28;20103;-68
2021/06/23 05:33:29;;;;;;;23.02;9.57;;;;;;;29.29;54.05;99666.44;5117988;28;20232;-68
2021/06/23 05:35:54;;;;;;;27.80;9.90;;;;;;;29.32;52.94;99665.88;5108945;28;20047;-68
2021/06/23 05:38:20;;;;;;;27.50;9.88;;;;;;;29.63;52.30;99674.59;5116579;28;20027;-68
2021/06/23 05:40:46;;;;;;;28.98;10.00;;;;;;;29.55;51.97;99665.13;5112821;28;20027;-68
2021/06/23 05:43:11;;;;;;;24.60;10.93;;;;;;;29.87;52.60;99664.47;5108799;28;20039;-68
2021/06/23 05:45:37;;;;;;;28.17;11.07;;;;;;;30.07;51.85;99665.38;5116806;28;20035;-67
2021/06/23 05:48:03;;;;;;;32.05;10.10;;;;;;;30.03;51.64;99667.06;5112766;28;20034;-67
2021/06/23 05:50:30;;;;;;;26.55;10.20;;;;;;;30.12;50.85;99668.84;5103693;28;20062;-68
2021/06/23 05:52:55;;;;;;;34.58;10.18;;;;;;;30.27;50.09;99667.06;5113193;28;20032;-68
2021/06/23 05:55:21;;;;;;;30.27;10.10;;;;;;;30.73;49.95;99667.22;5108019;28;20277;-68
2021/06/23 05:57:54;;;;;;;20.02;9.75;;;;;;;31.17;48.98;99655.88;5104577;28;20040;-67
2021/06/23 06:00:21;;;;;;;34.40;9.55;;;;;;;31.61;47.76;99649.09;5102998;28;20020;-67
2021/06/23 06:02:47;;;;;;;29.55;10.20;;;;;;;31.77;47.35;99664.13;5119462;28;20044;-67
2021/06/23 06:05:13;;;;;;;32.05;10.07;;;;;;;32.18;45.88;99650.38;5105552;28;20343;-68
2021/06/23 06:07:38;;;;;;;32.72;9.75;;;;;;;32.50;45.29;99654.13;5103754;28;20038;-68
2021/06/23 06:10:04;;;;;;;36.58;10.35;;;;;;;32.87;44.33;99647.50;5098492;28;20024;-67
2021/06/23 06:12:29;;;;;;;40.85;10.40;;;;;;;32.81;44.05;99649.56;5117794;28;20145;-67
2021/06/23 06:14:55;;;;;;;31.20;11.50;;;;;;;33.04;43.66;99650.38;5118307;28;20038;-66
2021/06/23 06:17:21;;;;;;;35.72;10.13;;;;;;;33.07;43.11;99646.19;5123546;28;20087;-67
2021/06/23 06:19:46;;;;;;;39.10;10.70;;;;;;;33.38;42.63;99643.53;5120386;28;20031;-67
2021/06/23 06:22:11;;;;;;;39.17;14.05;;;;;;;33.60;42.16;99647.00;5117346;28;20040;-67
2021/06/23 06:24:37;;;;;;;44.38;10.20;;;;;;;33.73;40.97;99642.53;5115407;28;20027;-67
2021/06/23 06:27:03;;;;;;;40.17;9.88;;;;;;;33.87;40.84;99650.69;5115460;28;20066;-67
2021/06/23 06:29:28;;;;;;;38.03;9.70;;;;;;;33.86;40.29;99651.81;5117377;28;20043;-67
2021/06/23 06:31:54;;;;;;;34.03;9.70;;;;;;;33.99;40.13;99655.56;5117003;28;20360;-68
2021/06/23 06:34:19;;;;;;;41.90;9.00;;;;;;;34.38;39.87;99646.47;5115152;28;20093;-67
2021/06/23 06:36:45;;;;;;;30.33;8.43;;;;;;;34.52;38.88;99650.69;5118339;28;20070;-68
2021/06/23 06:39:10;;;;;;;42.75;10.55;;;;;;;34.76;38.52;99641.94;5105058;28;20087;-67
2021/06/23 06:41:36;;;;;;;39.30;9.75;;;;;;;34.64;38.08;99654.72;5122600;28;20035;-68
2021/06/23 06:44:01;;;;;;;34.95;9.50;;;;;;;34.81;38.52;99651.97;5123549;27;20036;-68
2021/06/23 06:46:27;;;;;;;42.03;11.52;;;;;;;35.00;38.07;99652.47;5124239;27;20035;-68
2021/06/23 06:48:53;;;;;;;48.45;11.30;;;;;;;35.16;37.07;99650.00;5123508;28;20038;-67
2021/06/23 06:51:18;;;;;;;33.83;9.30;;;;;;;35.40;36.67;99644.00;5104993;28;20081;-67
2021/06/23 06:53:43;;;;;;;38.00;9.25;;;;;;;35.13;37.39;99647.91;5123057;28;20036;-66
2021/06/23 06:56:09;;;;;;;46.45;10.52;;;;;;;35.86;36.48;99650.63;5122208;28;20066;-68
2021/06/23 06:58:35;;;;;;;44.65;10.48;;;;;;;36.12;35.80;99645.75;5122930;28;20028;-67
2021/06/23 07:01:00;;;;;;;43.75;11.23;;;;;;;36.55;35.67;99644.69;5122971;28;20042;-68
2021/06/23 07:03:26;;;;;;;34.88;10.60;;;;;;;36.87;34.24;99643.94;5123505;28;20036;-69
2021/06/23 07:05:51;;;;;;;45.65;9.88;;;;;;;36.57;34.57;99639.66;5122531;28;20035;-66
2021/06/23 07:08:16;;;;;;;38.45;10.02;;;;;;;36.36;34.62;99634.91;5122977;28;20028;-67
2021/06/23 07:10:42;;;;;;;45.13;9.98;;;;;;;36.54;34.36;99641.13;5122916;28;20027;-68
2021/06/23 07:13:07;;;;;;;35.70;8.55;;;;;;;36.77;33.32;99647.13;5122929;28;20050;-68
2021/06/23 07:15:33;;;;;;;44.05;10.05;;;;;;;36.69;34.55;99647.97;5122589;28;20027;-68
2021/06/23 07:17:59;;;;;;;47.17;9.32;;;;;;;36.88;33.32;99640.03;5122601;28;20027;-67
2021/06/23 07:20:25;;;;;;;40.08;10.70;;;;;;;37.06;33.91;99638.72;5122888;28;20023;-68
2021/06/23 07:22:50;;;;;;;46.88;9.40;;;;;;;37.31;32.91;99628.56;5123126;28;20036;-67
2021/06/23 07:25:16;;;;;;;33.63;9.60;;;;;;;37.57;32.29;99625.50;5124063;27;20034;-67
2021/06/23 07:27:41;;;;;;;45.88;10.00;;;;;;;37.73;31.56;99633.94;5123217;28;20313;-67
2021/06/23 07:30:07;;;;;;;40.67;9.55;;;;;;;37.76;31.02;99627.72;5122495;28;20038;-68
2021/06/23 07:32:45;;;;;;;40.22;8.88;;;;;;;37.70;31.27;99627.13;5123027;28;20042;-67
2021/06/23 07:37:56;;;;;;;38.83;9.50;;;;;;;37.60;32.27;99626.75;5122454;28;20030;-69
2021/06/23 07:40:34;;;;;;;32.83;8.85;;;;;;;38.05;31.31;99628.59;5122563;28;20035;-68
2021/06/23 07:43:00;;;;;;;38.53;8.65;;;;;;;38.04;31.49;99636.09;5122441;28;20100;-69
2021/06/23 07:45:26;;;;;;;35.03;9.02;;;;;;;38.12;31.31;99632.41;5122346;28;20409;-67
2021/06/23 07:47:51;;;;;;;42.03;9.65;;;;;;;37.79;31.93;99628.97;5122880;28;20305;-69
2021/06/23 07:50:16;;;;;;;55.45;10.20;;;;;;;37.62;32.29;99628.03;5122176;28;20031;-67
2021/06/23 07:52:49;;;;;;;38.53;9.02;;;;;;;38.17;31.73;99640.47;5122681;28;20198;-68
2021/06/23 08:09:07;;;;;;;52.80;9.85;;;;;;;38.83;30.89;99633.75;5117184;28;20083;-68
2021/06/23 08:11:36;;;;;;;37.65;8.70;;;;;;;38.85;30.55;99631.44;5120689;28;20058;-68
2021/06/23 08:14:03;;;;;;;44.30;9.10;;;;;;;38.59;30.89;99623.56;5117322;28;20024;-67
2021/06/23 08:16:30;;;;;;;47.63;11.55;;;;;;;38.34;31.28;99625.56;5118566;28;20031;-68
2021/06/23 08:18:55;;;;;;;61.78;11.38;;;;;;;38.43;30.68;99634.53;5120981;28;20024;-67
2021/06/23 08:21:21;;;;;;;46.13;10.02;;;;;;;38.72;31.00;99627.91;5111538;28;20072;-69
2021/06/23 08:23:46;;;;;;;39.72;8.38;;;;;;;38.47;30.46;99627.16;5113749;28;20027;-68
2021/06/23 08:26:12;;;;;;;34.55;8.90;;;;;;;38.66;31.07;99625.75;5111517;28;20035;-67
2021/06/23 08:28:37;;;;;;;38.17;8.70;;;;;;;38.57;30.17;99617.56;5111479;28;20023;-67
2021/06/23 08:31:03;;;;;;;37.47;8.40;;;;;;;38.60;29.84;99620.47;5119409;28;20221;-68
2021/06/23 08:33:28;;;;;;;36.53;8.65;;;;;;;38.71;29.71;99625.50;5113368;28;20038;-68
2021/06/23 08:35:54;;;;;;;44.28;9.25;;;;;;;38.67;29.38;99625.41;5112834;28;20043;-67
2021/06/23 08:38:21;;;;;;;38.85;9.77;;;;;;;38.38;30.39;99625.69;5114245;28;20015;-67
2021/06/23 08:40:47;;;;;;;41.60;8.43;;;;;;;38.60;29.62;99617.69;5113343;28;20035;-68
2021/06/23 08:43:17;;;;;;;46.85;9.52;;;;;;;38.74;29.63;99620.06;5112762;28;20027;-68
2021/06/23 08:45:43;;;;;;;37.45;8.90;;;;;;;39.20;28.54;99623.28;5113098;28;20031;-69
2021/06/23 08:48:11;;;;;;;48.63;9.23;;;;;;;39.27;27.74;99623.47;5114532;28;20028;-69
2021/06/23 08:50:37;;;;;;;39.45;8.57;;;;;;;39.34;27.86;99622.84;5112216;28;20015;-68
2021/06/23 08:53:02;;;;;;;45.42;7.63;;;;;;;39.13;27.72;99620.34;5114311;28;20081;-67
2021/06/23 08:55:28;;;;;;;41.00;7.57;;;;;;;39.52;27.76;99621.38;5114274;28;20028;-69
2021/06/23 08:57:53;;;;;;;43.45;7.38;;;;;;;39.35;27.75;99619.72;5097446;28;20027;-69
2021/06/23 09:00:21;;;;;;;34.80;7.68;;;;;;;39.49;27.57;99624.84;5113639;28;20027;-67
2021/06/23 09:02:47;;;;;;;30.48;7.28;;;;;;;39.55;27.20;99615.94;5116275;28;20046;-68
2021/06/23 09:05:14;;;;;;;34.63;8.68;;;;;;;39.43;27.55;99612.41;5120514;28;20032;-67
2021/06/23 09:07:43;;;;;;;39.55;8.65;;;;;;;38.75;28.38;99618.09;5116045;28;20035;-68
2021/06/23 09:10:23;;;;;;;32.65;7.28;;;;;;;38.52;27.97;99623.34;5113318;28;20032;-68
2021/06/23 09:13:06;;;;;;;41.88;7.43;;;;;;;38.59;28.40;99616.06;5118413;28;20105;-68
2021/06/23 09:15:41;;;;;;;34.40;6.47;;;;;;;38.92;27.42;99617.78;5109809;28;20023;-69
2021/06/23 09:18:11;;;;;;;34.03;6.63;;;;;;;38.85;26.88;99631.44;5113190;28;20034;-67
2021/06/23 09:20:37;;;;;;;39.88;8.05;;;;;;;38.74;26.81;99625.59;5112480;28;20042;-67
2021/06/23 09:23:02;;;;;;;42.28;7.28;;;;;;;39.03;26.35;99616.09;5115088;28;20296;-67
2021/06/23 09:25:31;;;;;;;31.83;6.72;;;;;;;39.55;25.21;99612.38;5110719;28;20360;-67
2021/06/23 09:27:59;;;;;;;36.80;7.72;;;;;;;39.82;26.23;99610.63;5112006;28;20027;-68
2021/06/23 09:30:27;;;;;;;41.42;7.70;;;;;;;39.65;26.53;99606.28;5114348;28;20032;-68
2021/06/23 09:33:21;;;;;;;32.08;7.65;;;;;;;39.52;26.08;99608.31;5115379;28;20386;-67
2021/06/23 09:35:55;;;;;;;32.85;6.82;;;;;;;39.02;26.78;99597.06;5117114;28;20032;-67
2021/06/23 09:38:42;;;;;;;37.03;7.40;;;;;;;38.65;27.67;99600.03;5115843;28;20313;-68
2021/06/23 09:41:17;;;;;;;36.20;6.60;;;;;;;38.26;28.39;99591.38;5118922;28;20058;-67
2021/06/23 09:43:42;;;;;;;40.60;7.28;;;;;;;37.56;28.95;99598.22;5118731;28;20059;-70
2021/06/23 09:46:19;;;;;;;34.28;7.60;;;;;;;36.67;30.75;99598.66;5123987;28;20038;-71
2021/06/23 09:48:46;;;;;;;41.35;7.50;;;;;;;36.86;31.63;99594.63;5119711;28;20329;-70
2021/06/23 09:51:15;;;;;;;45.97;8.82;;;;;;;37.27;31.37;99596.44;5117804;28;20050;-69
2021/06/23 09:53:40;;;;;;;38.60;7.18;;;;;;;37.59;31.18;99586.47;5116541;28;20183;-67
2021/06/23 09:56:25;;;;;;;37.75;6.63;;;;;;;37.80;29.64;99580.84;5114986;28;20035;-70
2021/06/23 09:58:52;;;;;;;39.40;8.20;;;;;;;37.86;30.03;99587.75;5096585;28;20024;-70
2021/06/23 10:01:18;;;;;;;32.33;7.03;;;;;;;37.63;28.97;99579.91;5116790;28;20035;-70
2021/06/23 10:04:08;;;;;;;48.60;8.85;;;;;;;37.48;29.60;99585.31;5099961;28;20321;-67
2021/06/23 10:06:39;;;;;;;37.35;7.60;;;;;;;37.31;30.63;99580.81;5113936;28;20080;-67
2021/06/23 10:09:23;;;;;;;38.85;7.00;;;;;;;36.89;29.89;99582.91;5117542;28;20032;-67
2021/06/23 10:11:51;;;;;;;;;;;;;;;36.84;28.79;99589.44;5121766;28;20066;-68
2021/06/23 10:14:17;;;;;;;38.50;7.40;;;;;;;36.73;29.62;99590.97;5122966;28;20225;-69
2021/06/23 10:16:43;;;;;;;38.85;7.72;;;;;;;36.41;30.67;99584.28;5115030;28;20044;-67
2021/06/23 10:19:09;;;;;;;40.72;7.32;;;;;;;36.36;30.48;99590.00;5114418;28;20068;-68
2021/06/23 10:21:36;;;;;;;34.13;7.13;;;;;;;36.10;31.90;99588.22;5115836;28;20047;-70
2021/06/23 10:24:03;;;;;;;50.50;8.07;;;;;;;36.09;31.04;99591.31;5114939;28;20043;-67
2021/06/23 10:26:30;;;;;;;42.67;8.23;;;;;;;36.27;31.20;99584.53;5115665;28;20055;-70
2021/06/23 10:28:57;;;;;;;40.20;7.75;;;;;;;36.65;30.88;99584.41;5117133;28;20111;-67
2021/06/23 10:31:25;;;;;;;38.13;8.27;;;;;;;36.41;30.58;99587.03;5116189;28;20416;-67
2021/06/23 10:33:51;;;;;;;33.80;7.72;;;;;;;36.51;30.24;99589.41;5116054;28;20174;-70
2021/06/23 10:36:17;;;;;;;32.70;7.07;;;;;;;36.72;29.78;99583.84;5098709;28;20401;-70
2021/06/23 10:38:45;;;;;;;38.10;7.53;;;;;;;36.79;30.18;99589.66;5116125;28;20034;-67
2021/06/23 10:41:12;;;;;;;32.30;7.22;;;;;;;36.72;29.72;99584.66;5113836;28;20024;-70
2021/06/23 10:43:38;;;;;;;33.58;7.07;;;;;;;36.41;30.04;99576.00;5119525;28;20028;-69
2021/06/23 10:46:03;;;;;;;43.15;8.63;;;;;;;36.43;29.63;99582.81;5122331;28;20040;-69
2021/06/23 10:48:29;;;;;;;44.05;7.95;;;;;;;36.51;27.91;99570.09;5099300;28;20031;-69
2021/06/23 10:50:55;;;;;;;34.03;6.65;;;;;;;36.58;28.95;99575.88;5113390;28;20032;-69
2021/06/23 10:53:36;;;;;;;50.53;6.95;;;;;;;36.52;26.02;99573.66;5117244;28;20030;-69
2021/06/23 10:56:05;;;;;;;43.75;7.35;;;;;;;36.28;27.46;99577.06;5119825;28;20032;-67
2021/06/23 10:58:33;;;;;;;30.48;6.50;;;;;;;36.01;27.94;99581.97;5114956;28;20186;-69
2021/06/23 11:01:13;;;;;;;46.50;6.72;;;;;;;36.22;27.94;99576.44;5116759;28;20106;-67
2021/06/23 11:04:02;;;;;;;36.17;7.63;;;;;;;36.19;28.07;99582.63;5114662;28;20027;-69
2021/06/23 11:06:46;;;;;;;41.13;7.18;;;;;;;36.34;28.01;99575.75;5115721;28;20104;-67
2021/06/23 11:09:26;;;;;;;35.78;6.53;;;;;;;36.37;28.09;99572.31;5114853;28;20072;-67
2021/06/23 11:11:53;;;;;;;41.72;7.30;;;;;;;36.45;29.01;99579.72;5117492;28;20144;-69
2021/06/23 11:14:21;;;;;;;28.85;6.57;;;;;;;36.62;27.66;99576.00;5121514;28;20108;-69
2021/06/23 11:16:46;;;;;;;37.35;6.80;;;;;;;36.61;28.28;99577.94;5118679;28;20031;-67
2021/06/23 11:19:12;;;;;;;44.05;7.60;;;;;;;36.56;29.44;99569.09;5099281;28;20099;-69
2021/06/23 11:21:38;;;;;;;35.60;6.75;;;;;;;36.54;29.37;99558.38;5116438;28;20024;-69
2021/06/23 11:24:19;;;;;;;39.38;7.57;;;;;;;36.53;28.95;99572.50;5120174;28;20029;-69
2021/06/23 11:26:50;;;;;;;45.38;7.00;;;;;;;36.39;27.89;99586.56;5122220;28;20059;-67
2021/06/23 11:29:15;;;;;;;42.10;7.28;;;;;;;36.30;29.47;99577.56;5122661;28;20068;-69
2021/06/23 11:31:45;;;;;;;38.08;7.20;;;;;;;36.27;29.28;99575.44;5122741;28;20309;-67
2021/06/23 11:34:31;;;;;;;47.50;7.72;;;;;;;36.46;29.45;99578.59;5115240;28;20040;-67
2021/06/23 11:36:57;;;;;;;42.75;8.07;;;;;;;36.30;29.99;99578.38;5112976;28;20028;-67
2021/06/23 11:39:22;;;;;;;35.20;7.25;;;;;;;36.36;28.99;99577.00;5117365;28;20035;-69
2021/06/23 11:41:48;;;;;;;37.50;6.63;;;;;;;36.15;29.71;99577.00;5121593;28;20027;-67